Terminal Aerodrome Forecast
Issued by NWS

Current Version | Previous Version | Text Only | Print | Product List | Glossary On
Versions: 1 2 3 4 5 6 7 8 9 10 11 12 13 14 15 16 17 18 19 20 21 22 23 24 25 26 27 28
607
FTUS45 KREV 240538
TAFTRK
TAF
KTRK 240538Z 2406/2506 00000KT P6SM BKN180
     FM241000 20010G18KT P6SM SCT100 BKN180 WS020/23040KT
     FM241600 21022G38KT P6SM SCT080 BKN120 WS020/23050KT
     FM242200 22018G32KT P6SM VCSH SCT035 BKN060 WS020/23055KT
     FM250100 21012G24KT 1SM -SN OVC010=

USA.gov is the U.S. government's official web portal to all federal, state and local government web resources and services.